sensor_id;sensor_type;location;lat;lon;timestamp;pressure;altitude;pressure_sealevel;temperature;humidity
15674;BME280;7937;48.090;16.212;2023-01-27T08:20:38;97744.06;;;4.81;45.75
15674;BME280;7937;48.090;16.212;2023-01-27T08:23:40;97743.19;;;3.60;50.10
15674;BME280;7937;48.090;16.212;2023-01-27T08:26:42;97743.59;;;2.66;52.50
15674;BME280;7937;48.090;16.212;2023-01-27T08:29:45;97749.66;;;2.02;55.05
15674;BME280;7937;48.090;16.212;2023-01-27T08:32:47;97738.03;;;1.61;56.76
15674;BME280;7937;48.090;16.212;2023-01-27T08:35:50;97716.19;;;1.09;57.97
15674;BME280;7937;48.090;16.212;2023-01-27T08:38:52;97759.78;;;1.10;59.15
15674;BME280;7937;48.090;16.212;2023-01-27T08:41:55;97758.94;;;0.95;60.55
15674;BME280;7937;48.090;16.212;2023-01-27T08:44:57;97723.44;;;0.55;61.33
15674;BME280;7937;48.090;16.212;2023-01-27T08:48:01;97766.00;;;0.57;62.55
15674;BME280;7937;48.090;16.212;2023-01-27T08:51:05;97766.66;;;0.36;63.08
15674;BME280;7937;48.090;16.212;2023-01-27T08:54:08;97764.25;;;0.26;63.93
15674;BME280;7937;48.090;16.212;2023-01-27T08:57:10;97739.38;;;-0.01;64.40
15674;BME280;7937;48.090;16.212;2023-01-27T09:00:12;97772.97;;;0.18;64.89
15674;BME280;7937;48.090;16.212;2023-01-27T09:03:16;97770.78;;;0.30;65.01
15674;BME280;7937;48.090;16.212;2023-01-27T09:06:19;97770.94;;;0.29;64.78
15674;BME280;7937;48.090;16.212;2023-01-27T09:09:22;97767.22;;;0.23;64.62
15674;BME280;7937;48.090;16.212;2023-01-27T09:12:24;97777.41;;;0.18;65.88
15674;BME280;7937;48.090;16.212;2023-01-27T09:15:29;97764.31;;;0.18;65.78
15674;BME280;7937;48.090;16.212;2023-01-27T09:18:33;97768.41;;;0.20;65.87
15674;BME280;7937;48.090;16.212;2023-01-27T09:21:38;97767.88;;;0.25;66.13
15674;BME280;7937;48.090;16.212;2023-01-27T09:24:40;97771.97;;;0.19;66.45
15674;BME280;7937;48.090;16.212;2023-01-27T09:27:43;97744.91;;;0.04;66.01
15674;BME280;7937;48.090;16.212;2023-01-27T09:30:45;97763.75;;;0.31;65.86
15674;BME280;7937;48.090;16.212;2023-01-27T09:33:47;97771.09;;;0.35;66.27
15674;BME280;7937;48.090;16.212;2023-01-27T09:36:56;97773.81;;;0.42;65.72
15674;BME280;7937;48.090;16.212;2023-01-27T09:40:01;97784.88;;;0.52;66.19
15674;BME280;7937;48.090;16.212;2023-01-27T09:43:51;97781.38;;;0.60;66.09
15674;BME280;7937;48.090;16.212;2023-01-27T09:50:21;97781.50;;;0.66;66.20
15674;BME280;7937;48.090;16.212;2023-01-27T09:56:48;97760.41;;;0.37;65.76
15674;BME280;7937;48.090;16.212;2023-01-27T10:00:05;97775.09;;;0.46;66.07
15674;BME280;7937;48.090;16.212;2023-01-27T10:14:01;97757.63;;;0.38;66.59
15674;BME280;7937;48.090;16.212;2023-01-27T10:27:09;97755.00;;;0.61;66.16
15674;BME280;7937;48.090;16.212;2023-01-27T10:30:24;97733.97;;;0.69;65.72
15674;BME280;7937;48.090;16.212;2023-01-27T10:33:50;97737.25;;;0.63;65.32
15674;BME280;7937;48.090;16.212;2023-01-27T10:40:30;97732.53;;;0.96;65.33
15674;BME280;7937;48.090;16.212;2023-01-27T10:50:30;97746.22;;;1.36;63.84
15674;BME280;7937;48.090;16.212;2023-01-27T10:57:10;97738.00;;;1.24;64.59
15674;BME280;7937;48.090;16.212;2023-01-27T11:03:56;97730.25;;;0.93;65.03
15674;BME280;7937;48.090;16.212;2023-01-27T11:07:02;97729.28;;;0.80;64.73
15674;BME280;7937;48.090;16.212;2023-01-27T11:10:17;97734.13;;;0.83;64.98
15674;BME280;7937;48.090;16.212;2023-01-27T11:13:20;97727.56;;;0.87;65.32
15674;BME280;7937;48.090;16.212;2023-01-27T11:16:24;97721.16;;;0.89;64.88
15674;BME280;7937;48.090;16.212;2023-01-27T11:19:39;97703.75;;;0.73;64.49
15674;BME280;7937;48.090;16.212;2023-01-27T11:29:32;97724.91;;;0.72;65.70
15674;BME280;7937;48.090;16.212;2023-01-27T11:32:59;97687.16;;;0.43;65.76
15674;BME280;7937;48.090;16.212;2023-01-27T11:36:06;97715.59;;;0.69;65.89
15674;BME280;7937;48.090;16.212;2023-01-27T11:39:10;97728.19;;;0.74;65.90
15674;BME280;7937;48.090;16.212;2023-01-27T11:42:13;97721.81;;;0.68;66.01
15674;BME280;7937;48.090;16.212;2023-01-27T11:45:18;97728.78;;;0.61;65.81
15674;BME280;7937;48.090;16.212;2023-01-27T11:48:21;97721.72;;;0.62;66.03
15674;BME280;7937;48.090;16.212;2023-01-27T11:51:39;97724.97;;;0.64;66.07
15674;BME280;7937;48.090;16.212;2023-01-27T11:55:03;97719.84;;;0.70;66.40
15674;BME280;7937;48.090;16.212;2023-01-27T11:58:14;97714.88;;;0.75;65.86
15674;BME280;7937;48.090;16.212;2023-01-27T12:01:24;97715.88;;;0.74;65.93
15674;BME280;7937;48.090;16.212;2023-01-27T12:08:01;97708.28;;;0.65;65.39
15674;BME280;7937;48.090;16.212;2023-01-27T12:14:22;97711.03;;;0.63;65.59
15674;BME280;7937;48.090;16.212;2023-01-27T12:20:46;97706.63;;;0.78;65.14
15674;BME280;7937;48.090;16.212;2023-01-27T12:23:54;97702.69;;;0.83;64.73
15674;BME280;7937;48.090;16.212;2023-01-27T12:26:57;97684.75;;;0.71;63.97
15674;BME280;7937;48.090;16.212;2023-01-27T12:30:03;97706.66;;;0.93;64.51
15674;BME280;7937;48.090;16.212;2023-01-27T12:33:13;97707.59;;;1.00;64.38
15674;BME280;7937;48.090;16.212;2023-01-27T12:36:21;97705.03;;;0.92;63.88
15674;BME280;7937;48.090;16.212;2023-01-27T12:39:45;97700.88;;;0.98;64.15
15674;BME280;7937;48.090;16.212;2023-01-27T12:46:05;97709.19;;;0.87;64.93
15674;BME280;7937;48.090;16.212;2023-01-27T12:49:11;97704.69;;;0.81;65.06
15674;BME280;7937;48.090;16.212;2023-01-27T12:52:19;97689.38;;;0.69;66.31
15674;BME280;7937;48.090;16.212;2023-01-27T12:55:31;97700.25;;;0.81;65.76
15674;BME280;7937;48.090;16.212;2023-01-27T12:58:38;97709.81;;;0.74;66.12
15674;BME280;7937;48.090;16.212;2023-01-27T13:01:40;97701.97;;;0.74;65.84
15674;BME280;7937;48.090;16.212;2023-01-27T13:05:07;97700.44;;;0.80;66.17
15674;BME280;7937;48.090;16.212;2023-01-27T13:08:16;97694.72;;;0.76;65.98
15674;BME280;7937;48.090;16.212;2023-01-27T13:11:35;97710.72;;;0.66;65.76
15674;BME280;7937;48.090;16.212;2023-01-27T13:14:40;97703.38;;;0.62;66.54
15674;BME280;7937;48.090;16.212;2023-01-27T13:17:47;97699.94;;;0.61;65.83
15674;BME280;7937;48.090;16.212;2023-01-27T13:21:13;97703.66;;;0.67;65.91
15674;BME280;7937;48.090;16.212;2023-01-27T13:24:32;97707.75;;;0.69;65.33
15674;BME280;7937;48.090;16.212;2023-01-27T13:27:38;97700.22;;;0.66;65.55
15674;BME280;7937;48.090;16.212;2023-01-27T13:30:45;97696.97;;;0.64;64.85
15674;BME280;7937;48.090;16.212;2023-01-27T13:37:47;97707.88;;;0.53;63.84
15674;BME280;7937;48.090;16.212;2023-01-27T13:40:52;97697.84;;;0.57;64.36
15674;BME280;7937;48.090;16.212;2023-01-27T13:44:02;97700.19;;;0.51;63.41
15674;BME280;7937;48.090;16.212;2023-01-27T13:47:40;97692.25;;;0.60;63.98
15674;BME280;7937;48.090;16.212;2023-01-27T13:50:47;97686.03;;;0.61;63.25
15674;BME280;7937;48.090;16.212;2023-01-27T13:53:57;97668.28;;;0.48;63.48
15674;BME280;7937;48.090;16.212;2023-01-27T13:57:06;97697.31;;;0.61;63.06
15674;BME280;7937;48.090;16.212;2023-01-27T14:00:35;97691.47;;;0.36;64.20
15674;BME280;7937;48.090;16.212;2023-01-27T14:06:55;97704.63;;;0.28;64.80
15674;BME280;7937;48.090;16.212;2023-01-27T14:10:24;97724.03;;;0.19;65.54
15674;BME280;7937;48.090;16.212;2023-01-27T14:24:01;97727.34;;;0.36;66.19
15674;BME280;7937;48.090;16.212;2023-01-27T14:27:32;97726.97;;;0.39;66.27
15674;BME280;7937;48.090;16.212;2023-01-27T14:30:41;97727.75;;;0.47;65.92
15674;BME280;7937;48.090;16.212;2023-01-27T14:40:21;97734.50;;;0.42;66.26
15674;BME280;7937;48.090;16.212;2023-01-27T14:47:01;97724.69;;;0.21;66.84
15674;BME280;7937;48.090;16.212;2023-01-27T14:50:22;97720.44;;;0.20;67.09
15674;BME280;7937;48.090;16.212;2023-01-27T15:00:45;97705.22;;;-0.08;67.41
15674;BME280;7937;48.090;16.212;2023-01-27T15:10:29;97739.50;;;0.29;67.85
15674;BME280;7937;48.090;16.212;2023-01-27T15:13:53;97743.06;;;0.36;67.74
15674;BME280;7937;48.090;16.212;2023-01-27T15:17:22;97726.41;;;0.29;67.50
15674;BME280;7937;48.090;16.212;2023-01-27T15:26:56;97747.78;;;0.17;68.23
15674;BME280;7937;48.090;16.212;2023-01-27T15:30:04;97756.81;;;0.15;68.49
15674;BME280;7937;48.090;16.212;2023-01-27T15:37:16;97770.50;;;0.25;69.27
15674;BME280;7937;48.090;16.212;2023-01-27T15:40:20;97777.63;;;0.08;68.78
15674;BME280;7937;48.090;16.212;2023-01-27T15:43:28;97756.75;;;0.00;69.42
15674;BME280;7937;48.090;16.212;2023-01-27T15:46:33;97756.59;;;-0.07;69.22
15674;BME280;7937;48.090;16.212;2023-01-27T15:50:18;97745.13;;;-0.06;69.62
15674;BME280;7937;48.090;16.212;2023-01-27T15:53:31;97745.44;;;-0.01;69.57
15674;BME280;7937;48.090;16.212;2023-01-27T15:56:49;97750.03;;;-0.03;69.88
15674;BME280;7937;48.090;16.212;2023-01-27T15:59:55;97740.78;;;-0.13;70.08
15674;BME280;7937;48.090;16.212;2023-01-27T16:03:02;97758.44;;;-0.15;70.42
15674;BME280;7937;48.090;16.212;2023-01-27T16:06:08;97769.09;;;-0.17;70.18
15674;BME280;7937;48.090;16.212;2023-01-27T16:09:30;97763.84;;;-0.17;69.75
15674;BME280;7937;48.090;16.212;2023-01-27T16:12:42;97764.66;;;-0.16;70.37
15674;BME280;7937;48.090;16.212;2023-01-27T16:16:41;97764.81;;;-0.10;70.40
15674;BME280;7937;48.090;16.212;2023-01-27T16:20:26;97766.25;;;-0.07;70.42
15674;BME280;7937;48.090;16.212;2023-01-27T16:23:14;97765.97;;;-0.12;70.25
15674;BME280;7937;48.090;16.212;2023-01-27T16:26:30;97779.16;;;-0.06;70.28
15674;BME280;7937;48.090;16.212;2023-01-27T16:29:38;97785.22;;;-0.05;69.72
15674;BME280;7937;48.090;16.212;2023-01-27T16:32:57;97787.84;;;-0.05;69.81
15674;BME280;7937;48.090;16.212;2023-01-27T16:42:35;97786.38;;;0.01;70.00
15674;BME280;7937;48.090;16.212;2023-01-27T16:45:50;97775.75;;;-0.06;69.55
15674;BME280;7937;48.090;16.212;2023-01-27T16:48:52;97779.22;;;-0.14;69.71
15674;BME280;7937;48.090;16.212;2023-01-27T16:51:57;97776.72;;;-0.07;69.44
15674;BME280;7937;48.090;16.212;2023-01-27T16:55:00;97775.22;;;-0.02;69.76
15674;BME280;7937;48.090;16.212;2023-01-27T16:58:05;97784.19;;;0.04;69.54
15674;BME280;7937;48.090;16.212;2023-01-27T17:01:29;97791.38;;;0.10;68.95
15674;BME280;7937;48.090;16.212;2023-01-27T17:04:37;97779.84;;;-0.04;69.23
15674;BME280;7937;48.090;16.212;2023-01-27T17:07:39;97790.94;;;-0.02;69.05
15674;BME280;7937;48.090;16.212;2023-01-27T17:10:50;97795.25;;;-0.09;69.10
15674;BME280;7937;48.090;16.212;2023-01-27T17:14:00;97806.84;;;-0.03;69.24
15674;BME280;7937;48.090;16.212;2023-01-27T17:17:05;97811.56;;;0.02;69.49
15674;BME280;7937;48.090;16.212;2023-01-27T17:20:26;97818.91;;;0.06;69.23
15674;BME280;7937;48.090;16.212;2023-01-27T17:23:34;97817.44;;;0.04;68.94
15674;BME280;7937;48.090;16.212;2023-01-27T17:26:41;97824.66;;;0.02;69.35
15674;BME280;7937;48.090;16.212;2023-01-27T17:29:49;97824.00;;;-0.01;69.20
15674;BME280;7937;48.090;16.212;2023-01-27T17:32:57;97841.25;;;-0.14;69.72
15674;BME280;7937;48.090;16.212;2023-01-27T17:36:07;97846.66;;;-0.16;69.91
15674;BME280;7937;48.090;16.212;2023-01-27T17:39:23;97857.28;;;-0.17;69.95
15674;BME280;7937;48.090;16.212;2023-01-27T17:42:32;97859.91;;;-0.17;69.86
15674;BME280;7937;48.090;16.212;2023-01-27T17:45:35;97822.34;;;-0.33;69.59
15674;BME280;7937;48.090;16.212;2023-01-27T17:48:52;97852.13;;;-0.42;70.15
15674;BME280;7937;48.090;16.212;2023-01-27T17:52:00;97848.25;;;-0.62;70.43
15674;BME280;7937;48.090;16.212;2023-01-27T17:55:03;97845.69;;;-0.79;70.45
15674;BME280;7937;48.090;16.212;2023-01-27T17:58:20;97854.34;;;-0.78;70.11
15674;BME280;7937;48.090;16.212;2023-01-27T18:01:25;97857.41;;;-0.74;69.93
15674;BME280;7937;48.090;16.212;2023-01-27T18:04:29;97863.31;;;-0.72;70.01
15674;BME280;7937;48.090;16.212;2023-01-27T18:07:35;97865.09;;;-0.65;70.12
15674;BME280;7937;48.090;16.212;2023-01-27T18:10:40;97862.34;;;-0.63;69.86
15674;BME280;7937;48.090;16.212;2023-01-27T18:13:51;97865.09;;;-0.65;70.00
15674;BME280;7937;48.090;16.212;2023-01-27T18:17:20;97852.38;;;-0.76;70.23
15674;BME280;7937;48.090;16.212;2023-01-27T18:20:28;97867.91;;;-0.83;70.63
15674;BME280;7937;48.090;16.212;2023-01-27T18:23:35;97872.34;;;-0.83;70.37
15674;BME280;7937;48.090;16.212;2023-01-27T18:26:42;97870.66;;;-0.84;70.10
15674;BME280;7937;48.090;16.212;2023-01-27T18:29:45;97872.16;;;-0.90;70.06
15674;BME280;7937;48.090;16.212;2023-01-27T18:32:51;97850.25;;;-1.05;70.13
15674;BME280;7937;48.090;16.212;2023-01-27T18:35:57;97889.66;;;-0.82;69.76
15674;BME280;7937;48.090;16.212;2023-01-27T18:39:37;97884.41;;;-0.82;70.03
15674;BME280;7937;48.090;16.212;2023-01-27T18:42:41;97891.59;;;-0.76;69.97
15674;BME280;7937;48.090;16.212;2023-01-27T18:45:44;97893.41;;;-0.76;69.87
15674;BME280;7937;48.090;16.212;2023-01-27T18:48:48;97901.09;;;-0.83;69.68
15674;BME280;7937;48.090;16.212;2023-01-27T18:51:50;97908.28;;;-0.93;69.66
15674;BME280;7937;48.090;16.212;2023-01-27T18:54:59;97915.28;;;-0.94;69.62
15674;BME280;7937;48.090;16.212;2023-01-27T18:58:03;97914.66;;;-0.88;69.75
15674;BME280;7937;48.090;16.212;2023-01-27T19:01:15;97926.75;;;-0.87;69.44
15674;BME280;7937;48.090;16.212;2023-01-27T19:04:20;97920.88;;;-0.81;69.32
15674;BME280;7937;48.090;16.212;2023-01-27T19:07:25;97915.00;;;-0.83;69.52
15674;BME280;7937;48.090;16.212;2023-01-27T19:10:32;97917.28;;;-0.88;69.38
15674;BME280;7937;48.090;16.212;2023-01-27T19:13:35;97914.81;;;-0.89;69.43
15674;BME280;7937;48.090;16.212;2023-01-27T19:16:38;97914.97;;;-0.99;69.61
15674;BME280;7937;48.090;16.212;2023-01-27T19:19:41;97871.84;;;-1.27;69.61
15674;BME280;7937;48.090;16.212;2023-01-27T19:22:45;97902.56;;;-0.97;69.55
15674;BME280;7937;48.090;16.212;2023-01-27T19:25:58;97908.44;;;-0.95;69.76
15674;BME280;7937;48.090;16.212;2023-01-27T19:29:04;97881.31;;;-1.10;69.93
15674;BME280;7937;48.090;16.212;2023-01-27T19:32:10;97909.09;;;-1.01;70.06
15674;BME280;7937;48.090;16.212;2023-01-27T19:35:20;97868.38;;;-1.36;70.20
15674;BME280;7937;48.090;16.212;2023-01-27T19:38:24;97895.34;;;-1.19;70.03
15674;BME280;7937;48.090;16.212;2023-01-27T19:41:28;97911.72;;;-1.01;70.00
15674;BME280;7937;48.090;16.212;2023-01-27T19:44:30;97908.78;;;-0.98;70.00
15674;BME280;7937;48.090;16.212;2023-01-27T19:47:34;97917.41;;;-0.89;69.91
15674;BME280;7937;48.090;16.212;2023-01-27T19:50:37;97922.66;;;-0.89;70.05
15674;BME280;7937;48.090;16.212;2023-01-27T19:53:41;97923.81;;;-0.92;70.00
15674;BME280;7937;48.090;16.212;2023-01-27T19:56:48;97926.28;;;-0.98;70.21
15674;BME280;7937;48.090;16.212;2023-01-27T19:59:58;97933.59;;;-0.86;70.45
15674;BME280;7937;48.090;16.212;2023-01-27T20:03:12;97931.97;;;-0.87;70.27
15674;BME280;7937;48.090;16.212;2023-01-27T20:06:23;97934.94;;;-0.82;70.16
15674;BME280;7937;48.090;16.212;2023-01-27T20:09:28;97937.69;;;-0.91;70.02
15674;BME280;7937;48.090;16.212;2023-01-27T20:12:32;97937.84;;;-1.01;70.20
15674;BME280;7937;48.090;16.212;2023-01-27T20:15:36;97915.28;;;-1.18;70.64
15674;BME280;7937;48.090;16.212;2023-01-27T20:18:42;97940.94;;;-1.06;70.59
15674;BME280;7937;48.090;16.212;2023-01-27T20:21:46;97933.91;;;-1.21;70.90
15674;BME280;7937;48.090;16.212;2023-01-27T20:24:50;97936.84;;;-1.33;71.63
15674;BME280;7937;48.090;16.212;2023-01-27T20:27:56;97891.03;;;-1.53;71.71
15674;BME280;7937;48.090;16.212;2023-01-27T20:31:02;97940.09;;;-1.31;71.59
15674;BME280;7937;48.090;16.212;2023-01-27T20:34:04;97942.06;;;-1.33;72.20
15674;BME280;7937;48.090;16.212;2023-01-27T20:37:09;97946.94;;;-1.30;72.33
15674;BME280;7937;48.090;16.212;2023-01-27T20:40:17;97947.28;;;-1.24;72.37
15674;BME280;7937;48.090;16.212;2023-01-27T20:43:20;97947.97;;;-1.22;72.44
15674;BME280;7937;48.090;16.212;2023-01-27T20:46:36;97949.25;;;-1.26;72.51
15674;BME280;7937;48.090;16.212;2023-01-27T20:49:42;97950.22;;;-1.36;72.48
15674;BME280;7937;48.090;16.212;2023-01-27T20:52:48;97954.28;;;-1.33;72.35
15674;BME280;7937;48.090;16.212;2023-01-27T20:55:54;97949.56;;;-1.30;72.15
15674;BME280;7937;48.090;16.212;2023-01-27T20:58:56;97950.03;;;-1.34;72.06
15674;BME280;7937;48.090;16.212;2023-01-27T21:01:59;97952.03;;;-1.28;72.08
15674;BME280;7937;48.090;16.212;2023-01-27T21:05:07;97950.25;;;-1.19;71.77
15674;BME280;7937;48.090;16.212;2023-01-27T21:08:15;97955.66;;;-1.13;71.82
15674;BME280;7937;48.090;16.212;2023-01-27T21:11:21;97951.56;;;-1.15;71.60
15674;BME280;7937;48.090;16.212;2023-01-27T21:14:24;97950.75;;;-1.16;71.29
15674;BME280;7937;48.090;16.212;2023-01-27T21:17:27;97953.53;;;-1.09;71.13
15674;BME280;7937;48.090;16.212;2023-01-27T21:20:30;97960.38;;;-1.16;70.90
15674;BME280;7937;48.090;16.212;2023-01-27T21:23:33;97950.41;;;-1.21;70.73
15674;BME280;7937;48.090;16.212;2023-01-27T21:26:37;97959.38;;;-1.23;70.86
15674;BME280;7937;48.090;16.212;2023-01-27T21:29:40;97967.72;;;-1.20;71.02
15674;BME280;7937;48.090;16.212;2023-01-27T21:32:44;97965.31;;;-1.13;71.17
15674;BME280;7937;48.090;16.212;2023-01-27T21:35:53;97952.50;;;-1.24;70.92
15674;BME280;7937;48.090;16.212;2023-01-27T21:38:56;97968.56;;;-1.11;70.89
15674;BME280;7937;48.090;16.212;2023-01-27T21:41:59;97965.63;;;-1.08;70.98
15674;BME280;7937;48.090;16.212;2023-01-27T21:45:01;97965.94;;;-1.11;71.09
15674;BME280;7937;48.090;16.212;2023-01-27T21:48:15;97972.81;;;-1.10;71.13
15674;BME280;7937;48.090;16.212;2023-01-27T21:51:18;97973.34;;;-0.98;70.82
15674;BME280;7937;48.090;16.212;2023-01-27T21:54:21;97978.91;;;-0.93;70.69
15674;BME280;7937;48.090;16.212;2023-01-27T21:57:23;97971.88;;;-0.93;70.56
15674;BME280;7937;48.090;16.212;2023-01-27T22:00:27;97981.66;;;-0.87;70.71
15674;BME280;7937;48.090;16.212;2023-01-27T22:03:30;97979.38;;;-0.98;70.60
15674;BME280;7937;48.090;16.212;2023-01-27T22:06:32;97967.91;;;-0.89;70.47
15674;BME280;7937;48.090;16.212;2023-01-27T22:09:35;97980.03;;;-0.88;70.07
15674;BME280;7937;48.090;16.212;2023-01-27T22:12:38;97982.31;;;-0.93;70.18
15674;BME280;7937;48.090;16.212;2023-01-27T22:15:40;97985.75;;;-0.92;70.03
15674;BME280;7937;48.090;16.212;2023-01-27T22:18:42;97983.78;;;-0.90;70.13
15674;BME280;7937;48.090;16.212;2023-01-27T22:21:45;97981.00;;;-0.89;70.12
15674;BME280;7937;48.090;16.212;2023-01-27T22:24:47;97979.22;;;-0.80;70.27
15674;BME280;7937;48.090;16.212;2023-01-27T22:27:52;97982.66;;;-0.80;69.89
15674;BME280;7937;48.090;16.212;2023-01-27T22:31:00;97983.81;;;-0.82;69.71
15674;BME280;7937;48.090;16.212;2023-01-27T22:34:02;97990.66;;;-0.81;69.52
15674;BME280;7937;48.090;16.212;2023-01-27T22:37:04;97994.25;;;-0.82;69.86
15674;BME280;7937;48.090;16.212;2023-01-27T22:40:08;97993.94;;;-0.87;69.75
15674;BME280;7937;48.090;16.212;2023-01-27T22:43:16;97995.72;;;-0.88;70.40
15674;BME280;7937;48.090;16.212;2023-01-27T22:46:18;97999.97;;;-0.87;70.13
15674;BME280;7937;48.090;16.212;2023-01-27T22:49:20;97959.25;;;-1.06;69.89
15674;BME280;7937;48.090;16.212;2023-01-27T22:52:22;97992.09;;;-0.95;69.93
15674;BME280;7937;48.090;16.212;2023-01-27T22:55:24;97991.47;;;-0.89;70.11
15674;BME280;7937;48.090;16.212;2023-01-27T22:58:27;97988.22;;;-0.83;70.01
15674;BME280;7937;48.090;16.212;2023-01-27T23:01:29;97985.75;;;-0.84;69.71
15674;BME280;7937;48.090;16.212;2023-01-27T23:04:31;97990.81;;;-0.74;69.72
15674;BME280;7937;48.090;16.212;2023-01-27T23:07:34;97995.59;;;-0.78;69.55
15674;BME280;7937;48.090;16.212;2023-01-27T23:10:36;97977.59;;;-0.81;69.65
15674;BME280;7937;48.090;16.212;2023-01-27T23:13:39;97991.66;;;-0.82;69.65
15674;BME280;7937;48.090;16.212;2023-01-27T23:16:44;97988.56;;;-0.77;69.34
15674;BME280;7937;48.090;16.212;2023-01-27T23:19:46;97991.31;;;-0.79;69.22
15674;BME280;7937;48.090;16.212;2023-01-27T23:22:48;97989.84;;;-0.82;69.08
15674;BME280;7937;48.090;16.212;2023-01-27T23:25:51;97982.00;;;-0.82;69.39
15674;BME280;7937;48.090;16.212;2023-01-27T23:28:55;97980.69;;;-0.86;69.31
15674;BME280;7937;48.090;16.212;2023-01-27T23:31:59;97988.03;;;-0.97;69.59
15674;BME280;7937;48.090;16.212;2023-01-27T23:35:03;97986.22;;;-0.97;69.47
15674;BME280;7937;48.090;16.212;2023-01-27T23:38:07;97982.31;;;-0.93;69.61
15674;BME280;7937;48.090;16.212;2023-01-27T23:41:23;97991.63;;;-0.90;69.69
15674;BME280;7937;48.090;16.212;2023-01-27T23:44:25;97984.59;;;-0.90;69.60
15674;BME280;7937;48.090;16.212;2023-01-27T23:47:28;97991.16;;;-0.86;69.58
15674;BME280;7937;48.090;16.212;2023-01-27T23:50:30;97989.50;;;-0.87;69.43
15674;BME280;7937;48.090;16.212;2023-01-27T23:53:32;97982.66;;;-0.88;69.48
15674;BME280;7937;48.090;16.212;2023-01-27T23:56:34;97966.47;;;-0.91;69.16
15674;BME280;7937;48.090;16.212;2023-01-27T23:59:37;97982.19;;;-0.83;68.89
